Time;durP1;ratioP1;P1;durP2;ratioP2;P2;SDS_P1;SDS_P2;PMS_P1;PMS_P2;Temp;Humidity;BMP_temperature;BMP_pressure;BME280_temperature;BME280_humidity;BME280_pressure;Samples;Min_cycle;Max_cycle;Signal;HPM_P1;HPM_P2
2023/07/26 00:01:04;;;;;;;4.23;2.77;;;;;;;21.91;100.00;98544.28;6245467;28;20042;-73
2023/07/26 00:04:07;;;;;;;5.57;2.80;;;;;;;21.98;100.00;98601.88;6245368;28;20128;-73
2023/07/26 00:07:08;;;;;;;6.00;3.25;;;;;;;21.85;100.00;98669.88;6244855;28;20049;-73
2023/07/26 00:10:09;;;;;;;14.50;3.70;;;;;;;21.64;100.00;98718.59;6245083;28;20152;-73
2023/07/26 00:13:09;;;;;;;6.10;2.83;;;;;;;21.53;100.00;98732.41;6245483;28;20061;-73
2023/07/26 00:16:10;;;;;;;4.33;2.60;;;;;;;21.48;100.00;98709.13;6246593;28;20049;-73
2023/07/26 00:19:11;;;;;;;9.77;3.20;;;;;;;21.35;100.00;98711.66;6249204;28;20054;-73
2023/07/26 00:22:14;;;;;;;7.63;3.23;;;;;;;21.40;100.00;98688.03;6249548;28;20060;-72
2023/07/26 00:25:15;;;;;;;5.38;2.88;;;;;;;21.40;100.00;98628.84;6250003;28;20053;-73
2023/07/26 00:28:17;;;;;;;11.83;3.70;;;;;;;21.53;100.00;98594.44;6249497;28;20055;-73
2023/07/26 00:31:18;;;;;;;5.07;2.75;;;;;;;21.53;100.00;98559.94;6250406;28;20131;-73
2023/07/26 00:34:19;;;;;;;7.90;3.20;;;;;;;21.48;100.00;98512.78;6249281;28;20061;-73
2023/07/26 00:37:20;;;;;;;8.83;3.20;;;;;;;21.51;100.00;98459.28;6250125;28;20068;-73
2023/07/26 00:40:21;;;;;;;8.00;3.10;;;;;;;21.16;100.00;98364.97;6249046;28;20489;-73
2023/07/26 00:43:21;;;;;;;6.97;3.17;;;;;;;21.09;100.00;98355.19;6247905;28;20111;-72
2023/07/26 00:46:22;;;;;;;7.10;3.30;;;;;;;20.99;100.00;98340.69;6248797;28;20512;-71
2023/07/26 00:49:23;;;;;;;7.97;3.10;;;;;;;20.99;100.00;98380.47;6248660;28;20099;-71
2023/07/26 00:52:25;;;;;;;6.33;3.20;;;;;;;20.67;100.00;98380.16;6248640;28;20049;-73
2023/07/26 00:55:26;;;;;;;7.10;2.92;;;;;;;20.79;100.00;98389.16;6250002;28;20050;-73
2023/07/26 00:58:27;;;;;;;6.40;2.97;;;;;;;20.85;100.00;98404.28;6249810;28;20099;-70
2023/07/26 01:01:27;;;;;;;6.93;3.80;;;;;;;20.70;100.00;98432.78;6248457;28;20045;-73
2023/07/26 01:04:28;;;;;;;7.67;3.77;;;;;;;20.69;100.00;98441.72;6248279;28;20049;-72
2023/07/26 01:07:52;;;;;;;9.53;3.90;;;;;;;20.76;100.00;98474.41;6249150;28;20057;-72
2023/07/26 01:11:04;;;;;;;5.65;3.17;;;;;;;20.81;100.00;98554.13;6247948;28;20096;-73
2023/07/26 01:14:34;;;;;;;7.45;3.63;;;;;;;20.91;100.00;98606.78;6248346;28;20053;-73
2023/07/26 01:17:35;;;;;;;7.15;3.65;;;;;;;21.06;100.00;98626.03;6248073;28;20563;-73
2023/07/26 01:20:36;;;;;;;6.53;3.50;;;;;;;21.10;100.00;98647.69;6248072;28;20049;-73
2023/07/26 01:23:38;;;;;;;6.87;3.70;;;;;;;21.18;100.00;98655.47;6247089;28;20072;-73
2023/07/26 01:26:39;;;;;;;7.55;3.30;;;;;;;21.11;100.00;98666.06;6248862;28;20053;-73
2023/07/26 01:29:40;;;;;;;12.03;4.07;;;;;;;21.03;100.00;98681.31;6247345;28;20084;-73
2023/07/26 01:32:43;;;;;;;7.23;3.37;;;;;;;20.87;100.00;98696.47;6247826;28;20386;-73
2023/07/26 01:35:45;;;;;;;5.82;3.33;;;;;;;20.81;100.00;98709.69;6247630;28;20052;-73
2023/07/26 01:38:47;;;;;;;8.27;3.22;;;;;;;20.70;100.00;98719.81;6247839;28;20080;-73
2023/07/26 01:41:50;;;;;;;3.92;2.65;;;;;;;20.60;100.00;98721.16;6247530;28;20505;-74
2023/07/26 01:44:51;;;;;;;5.30;3.03;;;;;;;20.55;100.00;98708.44;6247434;28;20050;-73
2023/07/26 01:47:53;;;;;;;8.37;3.70;;;;;;;20.64;100.00;98703.84;6247140;28;20060;-73
2023/07/26 01:50:56;;;;;;;6.57;3.22;;;;;;;20.53;100.00;98718.41;6247072;28;20429;-73
2023/07/26 01:53:57;;;;;;;7.90;3.15;;;;;;;20.41;100.00;98712.81;6247131;28;20050;-73
2023/07/26 01:56:58;;;;;;;5.80;3.13;;;;;;;20.41;100.00;98709.34;6247131;28;20060;-74
2023/07/26 02:00:01;;;;;;;4.57;2.90;;;;;;;20.49;100.00;98706.56;6247256;28;20552;-73
2023/07/26 02:03:02;;;;;;;3.65;2.72;;;;;;;20.60;100.00;98698.13;6248218;28;20468;-74
2023/07/26 02:06:05;;;;;;;3.93;2.70;;;;;;;20.66;100.00;98712.44;6246859;28;20049;-73
2023/07/26 02:09:06;;;;;;;4.18;2.67;;;;;;;20.67;100.00;98706.97;6246671;28;20056;-73
2023/07/26 02:12:07;;;;;;;2.93;2.40;;;;;;;20.54;100.00;98609.56;6246807;28;20057;-73
2023/07/26 02:15:08;;;;;;;3.23;2.53;;;;;;;20.29;100.00;98505.91;6246632;28;20187;-74
2023/07/26 02:18:08;;;;;;;4.03;2.47;;;;;;;20.12;100.00;98455.06;6246074;28;20521;-73
2023/07/26 02:21:11;;;;;;;10.80;3.37;;;;;;;20.13;100.00;98453.25;6246378;28;20053;-73
2023/07/26 02:24:12;;;;;;;6.95;3.15;;;;;;;20.01;100.00;98462.72;6246603;28;20049;-73
2023/07/26 02:27:13;;;;;;;4.67;3.20;;;;;;;19.73;100.00;98467.00;6246620;28;20053;-73
2023/07/26 02:30:13;;;;;;;4.87;2.90;;;;;;;20.09;100.00;98476.63;6246243;28;20136;-73
2023/07/26 02:33:14;;;;;;;3.83;2.60;;;;;;;20.36;100.00;98476.00;6246667;28;20050;-73
2023/07/26 02:36:15;;;;;;;6.27;3.23;;;;;;;20.54;100.00;98492.19;6246348;28;20540;-71
2023/07/26 02:39:16;;;;;;;4.07;2.83;;;;;;;20.55;100.00;98528.28;6246202;28;20060;-71
2023/07/26 02:42:16;;;;;;;5.47;3.20;;;;;;;20.71;100.00;98551.00;6246533;28;20052;-71
2023/07/26 02:45:17;;;;;;;6.63;3.03;;;;;;;20.79;100.00;98568.59;6247571;28;20049;-71
2023/07/26 02:48:18;;;;;;;4.00;2.70;;;;;;;20.75;100.00;98584.06;6247331;28;20161;-71
2023/07/26 02:51:19;;;;;;;7.33;3.10;;;;;;;20.66;100.00;98620.50;6245024;28;20064;-71
2023/07/26 02:54:21;;;;;;;5.97;2.83;;;;;;;20.77;100.00;98645.63;6245297;28;20050;-71
2023/07/26 02:57:22;;;;;;;5.22;2.83;;;;;;;20.80;100.00;98657.72;6246012;28;20080;-71
2023/07/26 03:00:25;;;;;;;4.47;2.80;;;;;;;20.73;100.00;98650.53;6245828;28;20053;-71
2023/07/26 03:03:26;;;;;;;4.05;2.50;;;;;;;20.71;100.00;98638.47;6246912;28;20049;-71
2023/07/26 03:06:27;;;;;;;4.63;2.87;;;;;;;20.82;100.00;98630.00;6246170;28;20501;-71
2023/07/26 03:09:28;;;;;;;5.23;2.73;;;;;;;20.77;100.00;98613.03;6244927;28;20042;-71
2023/07/26 03:12:28;;;;;;;4.40;2.93;;;;;;;20.75;100.00;98620.34;6244570;28;20050;-71
2023/07/26 03:15:30;;;;;;;5.03;2.67;;;;;;;20.85;100.00;98596.97;6245867;28;20049;-71
2023/07/26 03:18:31;;;;;;;3.40;2.28;;;;;;;20.73;100.00;98576.31;6245732;28;20401;-71
2023/07/26 03:21:31;;;;;;;4.23;3.03;;;;;;;20.63;100.00;98541.41;6246667;28;20088;-71
2023/07/26 03:24:32;;;;;;;5.47;2.87;;;;;;;20.63;100.00;98496.34;6245784;28;20069;-71
2023/07/26 03:27:35;;;;;;;3.80;2.43;;;;;;;20.65;100.00;98473.13;6244866;28;20414;-71
2023/07/26 03:30:36;;;;;;;5.43;3.17;;;;;;;20.70;100.00;98461.94;6246201;28;20511;-71
2023/07/26 03:33:37;;;;;;;3.33;2.23;;;;;;;20.63;100.00;98461.91;6245257;28;20046;-71
2023/07/26 03:36:37;;;;;;;6.93;3.50;;;;;;;20.58;100.00;98464.31;6245293;28;20045;-71
2023/07/26 03:39:40;;;;;;;5.27;3.03;;;;;;;20.71;100.00;98477.66;6246805;28;20045;-71
2023/07/26 03:42:41;;;;;;;6.40;3.22;;;;;;;20.87;100.00;98510.13;6244922;28;20390;-70
2023/07/26 03:45:42;;;;;;;4.67;2.80;;;;;;;20.92;100.00;98531.56;6245534;28;20053;-71
2023/07/26 03:48:43;;;;;;;7.63;3.23;;;;;;;21.02;100.00;98555.03;6245212;28;20053;-71
2023/07/26 03:51:43;;;;;;;6.83;3.17;;;;;;;21.16;100.00;98574.47;6246330;28;20136;-72
2023/07/26 03:54:45;;;;;;;6.70;3.50;;;;;;;21.10;100.00;98587.50;6250384;28;20616;-73
2023/07/26 03:57:46;;;;;;;5.82;2.53;;;;;;;20.85;100.00;98611.03;6249562;28;20081;-72
2023/07/26 04:00:46;;;;;;;3.97;2.70;;;;;;;20.94;100.00;98619.66;6250102;28;20424;-73
2023/07/26 04:03:48;;;;;;;3.37;2.37;;;;;;;20.86;100.00;98630.44;6250739;28;20049;-73
2023/07/26 04:06:48;;;;;;;4.20;2.38;;;;;;;20.90;100.00;98647.59;6249465;28;20053;-73
2023/07/26 04:09:49;;;;;;;2.80;2.13;;;;;;;20.74;100.00;98656.66;6225589;28;20559;-73
2023/07/26 04:12:50;;;;;;;3.03;2.00;;;;;;;20.57;100.00;98661.38;6225397;28;20054;-73
2023/07/26 04:15:51;;;;;;;3.43;1.80;;;;;;;20.63;100.00;98675.72;6225777;28;20061;-73
2023/07/26 04:18:52;;;;;;;2.40;1.87;;;;;;;20.43;100.00;98691.44;6225429;28;20042;-73
2023/07/26 04:21:52;;;;;;;3.22;1.85;;;;;;;20.33;100.00;98687.25;6257875;28;20159;-71
2023/07/26 04:24:53;;;;;;;6.40;1.83;;;;;;;20.37;100.00;98685.06;6257701;28;20424;-71
2023/07/26 04:27:57;;;;;;;2.97;1.80;;;;;;;20.41;100.00;98680.19;6231167;28;20107;-73
2023/07/26 04:30:58;;;;;;;3.03;1.80;;;;;;;20.41;100.00;98683.66;6247165;28;20072;-70
2023/07/26 04:33:58;;;;;;;3.93;1.73;;;;;;;20.55;100.00;98689.91;6249615;28;20054;-71
2023/07/26 04:36:59;;;;;;;3.97;1.90;;;;;;;20.62;100.00;98682.03;6250555;28;20045;-71
2023/07/26 04:40:00;;;;;;;8.87;5.93;;;;;;;20.68;100.00;98679.44;6249029;28;20089;-71
2023/07/26 04:43:01;;;;;;;2.83;2.10;;;;;;;20.58;100.00;98660.38;6247737;28;20115;-71
2023/07/26 04:46:01;;;;;;;2.90;2.07;;;;;;;20.66;100.00;98643.53;6250067;28;20053;-71
2023/07/26 04:49:02;;;;;;;7.20;2.37;;;;;;;20.49;100.00;98654.38;6248651;28;20102;-71
2023/07/26 04:52:03;;;;;;;4.07;2.03;;;;;;;20.43;100.00;98649.84;6248400;28;20049;-71
2023/07/26 04:55:07;;;;;;;3.95;1.98;;;;;;;20.38;100.00;98636.34;6249033;28;20129;-71
2023/07/26 04:58:08;;;;;;;3.70;1.80;;;;;;;20.28;100.00;98622.63;6248781;28;20053;-71
2023/07/26 05:01:11;;;;;;;3.00;2.00;;;;;;;20.18;100.00;98619.47;6246760;28;20044;-71
2023/07/26 05:04:12;;;;;;;3.13;1.92;;;;;;;20.00;100.00;98620.75;6247828;28;20050;-70
2023/07/26 05:07:12;;;;;;;3.07;1.87;;;;;;;19.99;100.00;98613.81;6248967;28;20055;-70
2023/07/26 05:10:13;;;;;;;2.77;2.00;;;;;;;19.90;100.00;98615.75;6248385;28;20126;-70
2023/07/26 05:13:14;;;;;;;3.70;2.30;;;;;;;19.87;100.00;98620.59;6249770;28;20119;-71
2023/07/26 05:16:15;;;;;;;2.27;1.93;;;;;;;19.57;100.00;98633.91;6248508;28;20054;-71
2023/07/26 05:19:16;;;;;;;2.53;1.90;;;;;;;19.70;100.00;98628.78;6248212;28;20064;-70
2023/07/26 05:22:16;;;;;;;2.55;1.75;;;;;;;19.63;100.00;98645.56;6248802;28;20046;-71
2023/07/26 05:25:18;;;;;;;3.93;2.20;;;;;;;19.85;100.00;98659.66;6249294;28;20054;-70
2023/07/26 05:28:19;;;;;;;2.78;1.77;;;;;;;19.90;100.00;98671.34;6228950;28;20046;-70
2023/07/26 05:31:20;;;;;;;1.87;1.70;;;;;;;20.03;100.00;98660.06;6234284;28;20083;-70
2023/07/26 05:34:21;;;;;;;5.83;1.93;;;;;;;20.22;100.00;98665.75;6248389;28;20137;-70
2023/07/26 05:37:22;;;;;;;15.70;2.63;;;;;;;20.07;100.00;98665.81;6245924;28;20410;-70
2023/07/26 05:40:25;;;;;;;2.47;2.00;;;;;;;20.04;100.00;98674.97;6226246;28;20054;-70
2023/07/26 05:43:26;;;;;;;2.10;1.80;;;;;;;19.88;100.00;98676.00;6239734;28;20298;-70
2023/07/26 05:46:26;;;;;;;3.40;1.87;;;;;;;20.05;100.00;98673.94;6242134;28;20087;-70
2023/07/26 05:49:27;;;;;;;5.03;1.80;;;;;;;20.01;100.00;98670.03;6247666;28;20052;-70
2023/07/26 05:52:28;;;;;;;1.92;1.75;;;;;;;20.29;100.00;98691.28;6248136;28;20053;-72
2023/07/26 05:55:29;;;;;;;5.57;2.40;;;;;;;20.60;100.00;98676.09;6247216;28;20050;-72
2023/07/26 05:58:29;;;;;;;3.80;2.43;;;;;;;20.72;100.00;98667.44;6247599;28;20053;-72
2023/07/26 06:01:30;;;;;;;2.27;1.80;;;;;;;21.01;100.00;98654.16;6234200;28;20095;-72
2023/07/26 06:04:31;;;;;;;2.70;2.00;;;;;;;20.69;100.00;98651.94;6247977;28;20084;-72
2023/07/26 06:07:34;;;;;;;3.40;2.13;;;;;;;21.05;100.00;98655.41;6248412;28;20056;-72
2023/07/26 06:10:34;;;;;;;6.60;2.00;;;;;;;21.30;100.00;98653.91;6248131;28;20091;-72
2023/07/26 06:13:35;;;;;;;6.47;2.07;;;;;;;21.38;100.00;98660.06;6246653;28;20053;-72
2023/07/26 06:16:38;;;;;;;4.30;1.90;;;;;;;21.46;100.00;98644.03;6246641;28;20540;-72
2023/07/26 06:19:39;;;;;;;2.70;1.92;;;;;;;21.48;100.00;98649.94;6247842;28;20053;-72
2023/07/26 06:22:39;;;;;;;2.23;1.53;;;;;;;21.45;100.00;98639.72;6246759;28;20176;-72
2023/07/26 06:25:40;;;;;;;1.90;1.60;;;;;;;21.37;100.00;98637.19;6246756;28;20482;-72
2023/07/26 06:28:41;;;;;;;2.67;1.90;;;;;;;21.38;100.00;98652.94;6246505;28;20056;-72
2023/07/26 06:31:42;;;;;;;3.93;2.00;;;;;;;21.36;100.00;98648.84;6247283;28;20050;-72
2023/07/26 06:34:43;;;;;;;2.37;1.77;;;;;;;21.56;100.00;98667.50;6247942;28;20053;-72
2023/07/26 06:37:43;;;;;;;4.77;2.13;;;;;;;21.46;100.00;98660.75;6246425;28;20053;-72
2023/07/26 06:40:44;;;;;;;6.47;2.27;;;;;;;21.77;100.00;98666.59;6247553;28;20504;-72
2023/07/26 06:43:47;;;;;;;2.97;1.93;;;;;;;21.78;100.00;98663.72;6247631;28;20136;-72
2023/07/26 06:46:48;;;;;;;2.50;1.73;;;;;;;21.92;100.00;98661.91;6247527;28;20049;-71
2023/07/26 06:49:49;;;;;;;2.97;2.10;;;;;;;21.91;100.00;98649.69;6247508;28;20133;-72
2023/07/26 06:52:53;;;;;;;4.17;2.10;;;;;;;22.05;100.00;98654.00;6245984;28;20049;-70
2023/07/26 06:55:59;;;;;;;2.20;1.70;;;;;;;22.31;100.00;98655.88;6247351;28;20054;-71
2023/07/26 06:59:01;;;;;;;2.40;1.67;;;;;;;22.27;98.21;98670.59;6247690;28;20492;-72
2023/07/26 07:02:04;;;;;;;1.98;1.73;;;;;;;21.95;100.00;98672.16;6247346;28;20095;-71
2023/07/26 07:05:06;;;;;;;2.13;1.88;;;;;;;22.47;100.00;98667.13;6245239;28;20061;-72
2023/07/26 07:08:09;;;;;;;2.33;1.85;;;;;;;22.43;97.90;98660.59;6247330;28;20056;-72
2023/07/26 07:11:10;;;;;;;2.42;1.92;;;;;;;22.82;100.00;98672.25;6247071;28;20045;-71
2023/07/26 07:14:10;;;;;;;3.20;2.10;;;;;;;23.11;100.00;98674.44;6245803;28;20049;-71
2023/07/26 07:17:11;;;;;;;3.50;2.20;;;;;;;23.20;96.86;98677.69;6246040;28;20482;-71
2023/07/26 07:20:12;;;;;;;3.20;1.83;;;;;;;23.51;93.84;98684.16;6246896;28;20060;-71
2023/07/26 07:23:12;;;;;;;3.90;2.03;;;;;;;23.29;89.47;98687.09;6246756;28;20049;-71
2023/07/26 07:26:13;;;;;;;3.03;1.73;;;;;;;23.29;93.91;98697.75;6263970;28;20061;-72
2023/07/26 07:29:14;;;;;;;3.63;2.07;;;;;;;23.28;96.91;98701.41;6252243;28;20042;-72
2023/07/26 07:32:15;;;;;;;5.20;2.10;;;;;;;23.37;95.79;98687.88;6251911;28;20045;-71
2023/07/26 07:35:16;;;;;;;3.30;2.20;;;;;;;23.07;91.44;98686.53;6250913;28;20049;-71
2023/07/26 07:38:16;;;;;;;2.53;1.83;;;;;;;23.23;92.90;98703.91;6251909;28;20285;-71
2023/07/26 07:41:17;;;;;;;2.90;1.80;;;;;;;23.36;87.60;98703.03;6250542;28;20128;-71
2023/07/26 07:44:19;;;;;;;3.10;1.87;;;;;;;23.43;93.23;98698.53;6250480;28;20053;-71
2023/07/26 07:47:20;;;;;;;4.28;1.90;;;;;;;23.57;92.57;98696.63;6250390;28;20053;-71
2023/07/26 07:50:20;;;;;;;1.67;1.50;;;;;;;23.27;88.78;98706.97;6251504;28;20052;-71
2023/07/26 07:53:22;;;;;;;2.63;1.90;;;;;;;23.15;90.58;98704.13;6251443;28;20050;-71
2023/07/26 07:56:23;;;;;;;2.42;1.80;;;;;;;23.07;94.47;98701.69;6251666;28;20060;-71
2023/07/26 07:59:24;;;;;;;2.73;1.87;;;;;;;22.95;92.24;98698.81;6251430;28;20050;-71
2023/07/26 08:02:24;;;;;;;3.77;1.97;;;;;;;23.37;98.30;98704.69;6251456;28;20497;-71
2023/07/26 08:05:25;;;;;;;4.67;1.57;;;;;;;23.34;90.88;98711.22;6250071;28;20050;-71
2023/07/26 08:08:26;;;;;;;5.93;1.80;;;;;;;23.38;87.42;98713.50;6250209;28;20283;-70
2023/07/26 08:11:27;;;;;;;4.37;1.93;;;;;;;23.63;85.07;98719.75;6251137;28;20164;-71
2023/07/26 08:14:27;;;;;;;2.50;1.93;;;;;;;23.79;88.95;98729.16;6250817;28;20056;-71
2023/07/26 08:17:28;;;;;;;2.83;1.73;;;;;;;23.38;85.18;98732.13;6249699;28;20056;-71
2023/07/26 08:20:33;;;;;;;3.87;1.87;;;;;;;23.62;84.64;98747.41;6249485;28;20553;-71
2023/07/26 08:23:34;;;;;;;2.00;1.70;;;;;;;23.29;83.81;98742.19;6250800;28;20072;-71
2023/07/26 08:39:18;;;;;;;3.55;2.45;;;;;;;22.86;93.45;98743.41;6284759;28;20406;-72
2023/07/26 08:42:19;;;;;;;3.75;1.90;;;;;;;22.76;86.90;98740.34;6268405;28;20128;-71
2023/07/26 08:45:21;;;;;;;2.67;1.67;;;;;;;22.80;87.28;98728.28;6264858;28;20052;-72
2023/07/26 08:48:22;;;;;;;3.38;1.80;;;;;;;22.89;89.43;98728.88;6256899;28;20048;-72
2023/07/26 08:51:24;;;;;;;3.03;1.88;;;;;;;22.62;88.13;98733.38;6256276;28;20045;-72
2023/07/26 08:54:25;;;;;;;;;;;;;;;22.99;93.44;98737.25;6277682;28;20197;-72
2023/07/26 08:57:26;;;;;;;3.45;1.85;;;;;;;23.24;91.60;98752.59;6255062;28;19921;-72
2023/07/26 09:00:29;;;;;;;1.95;1.73;;;;;;;23.34;86.06;98759.13;6260832;28;20552;-72
2023/07/26 09:15:42;;;;;;;3.63;2.28;;;;;;;23.59;87.08;98786.94;6318436;27;20370;-71
2023/07/26 09:19:04;;;;;;;4.50;2.17;;;;;;;23.75;87.78;98786.47;6300360;28;20458;-73
2023/07/26 09:22:08;;;;;;;3.03;1.73;;;;;;;23.52;83.27;98777.13;6300208;28;20056;-73
2023/07/26 09:25:08;;;;;;;3.25;2.10;;;;;;;23.33;83.43;98773.47;6318219;28;20055;-71
2023/07/26 09:28:14;;;;;;;3.00;1.83;;;;;;;23.62;83.37;98783.88;6318110;28;20102;-69
2023/07/26 09:31:15;;;;;;;4.75;2.15;;;;;;;23.58;82.86;98787.97;6300020;28;20051;-71
2023/07/26 09:34:18;;;;;;;2.38;1.65;;;;;;;23.93;89.65;98799.16;6299990;28;20044;-71
2023/07/26 09:37:22;;;;;;;4.25;1.90;;;;;;;24.32;80.62;98790.16;6312406;28;20132;-71
2023/07/26 09:40:32;;;;;;;3.35;1.80;;;;;;;24.45;84.70;98780.47;6297295;28;20040;-71
2023/07/26 09:43:33;;;;;;;3.10;1.80;;;;;;;24.10;81.07;98783.50;6299232;28;20481;-71
2023/07/26 09:46:56;;;;;;;2.73;1.80;;;;;;;24.41;79.89;98784.59;6288398;28;20056;-71
2023/07/26 09:49:57;;;;;;;2.28;1.92;;;;;;;24.50;81.63;98793.97;6280928;28;20094;-71
2023/07/26 09:52:58;;;;;;;2.57;1.67;;;;;;;24.28;78.80;98788.97;6314855;28;20541;-71
2023/07/26 09:55:59;;;;;;;2.40;1.67;;;;;;;24.27;80.43;98783.84;6308129;28;20048;-70
2023/07/26 09:59:01;;;;;;;1.63;1.38;;;;;;;24.14;81.60;98782.88;6307937;28;20512;-70
2023/07/26 10:02:11;;;;;;;3.20;1.83;;;;;;;24.28;81.57;98782.81;6308032;28;20053;-69
2023/07/26 10:05:17;;;;;;;2.40;1.73;;;;;;;23.60;78.24;98783.25;6307713;28;20052;-69
2023/07/26 10:08:19;;;;;;;2.00;1.63;;;;;;;24.21;78.72;98785.50;6274203;28;20484;-71
2023/07/26 10:11:22;;;;;;;2.08;1.50;;;;;;;25.08;79.49;98779.59;6274441;28;20484;-70
2023/07/26 10:14:24;;;;;;;1.90;1.70;;;;;;;25.33;74.92;98780.44;6287729;28;20049;-70
2023/07/26 10:17:28;;;;;;;2.67;1.40;;;;;;;25.07;72.71;98788.66;6285922;28;20474;-71
2023/07/26 10:20:32;;;;;;;3.88;1.90;;;;;;;25.34;74.13;98776.72;6282196;28;20527;-71
2023/07/26 10:23:34;;;;;;;3.42;1.38;;;;;;;24.98;70.03;98766.78;6279801;28;20083;-71
2023/07/26 10:26:37;;;;;;;2.22;1.58;;;;;;;25.12;73.77;98775.44;6266942;28;20211;-70
2023/07/26 10:29:39;;;;;;;1.50;1.35;;;;;;;25.41;75.92;98789.19;6277950;28;20140;-70
2023/07/26 10:32:47;;;;;;;2.42;1.70;;;;;;;25.72;67.74;98775.72;6276713;28;20416;-70
2023/07/26 10:35:48;;;;;;;4.72;1.75;;;;;;;25.90;71.92;98776.75;6277866;28;20052;-71
2023/07/26 10:38:50;;;;;;;2.97;1.55;;;;;;;25.95;68.50;98771.56;6276370;28;20098;-70
2023/07/26 10:41:51;;;;;;;;;;;;;;;26.54;68.32;98777.97;6277067;28;20055;-70
2023/07/26 10:44:54;;;;;;;1.40;1.30;;;;;;;25.74;70.48;98756.78;6265631;28;19925;-71
2023/07/26 10:47:55;;;;;;;1.80;1.65;;;;;;;26.12;75.05;98758.41;6299038;28;20052;-71
2023/07/26 10:50:58;;;;;;;2.25;1.52;;;;;;;27.29;66.13;98763.19;6285120;28;20048;-71
2023/07/26 10:54:00;;;;;;;1.80;1.40;;;;;;;27.71;63.18;98768.38;6284443;28;20465;-70
2023/07/26 10:57:16;;;;;;;2.72;1.33;;;;;;;28.33;60.81;98769.59;6267206;28;20446;-71
2023/07/26 11:00:22;;;;;;;2.92;1.65;;;;;;;27.36;62.50;98768.44;6267162;28;20063;-71
2023/07/26 11:03:27;;;;;;;2.33;1.40;;;;;;;27.59;62.72;98754.19;6284732;28;20492;-71
2023/07/26 11:06:51;;;;;;;2.05;1.58;;;;;;;27.99;61.55;98756.09;6284273;28;20050;-71
2023/07/26 11:10:11;;;;;;;1.90;1.48;;;;;;;27.88;60.31;98749.72;6291101;28;20435;-70
2023/07/26 11:13:18;;;;;;;1.88;1.65;;;;;;;28.44;58.89;98757.19;6307945;28;20131;-70
2023/07/26 11:16:19;;;;;;;1.80;1.50;;;;;;;29.04;57.77;98742.34;6290875;28;20131;-71
2023/07/26 11:19:22;;;;;;;2.58;1.50;;;;;;;28.04;60.93;98748.16;6280441;28;20048;-71
2023/07/26 11:22:23;;;;;;;3.45;1.50;;;;;;;28.19;59.64;98742.28;6277517;28;20055;-71
2023/07/26 11:25:24;;;;;;;1.83;1.35;;;;;;;27.49;61.03;98733.38;6298089;28;20720;-71
2023/07/26 11:28:30;;;;;;;2.05;1.15;;;;;;;26.83;65.17;98737.19;6279027;28;20059;-71
2023/07/26 11:31:31;;;;;;;2.08;1.30;;;;;;;26.02;66.40;98750.91;6276309;28;20057;-71
2023/07/26 11:34:31;;;;;;;2.03;1.58;;;;;;;24.79;86.96;98752.56;6275505;28;20511;-70
2023/07/26 11:37:32;;;;;;;2.45;1.70;;;;;;;24.00;92.92;98761.84;6263833;28;20066;-72
2023/07/26 11:40:40;;;;;;;2.67;1.87;;;;;;;24.05;97.93;98772.66;6262131;28;20040;-72
2023/07/26 11:43:41;;;;;;;2.33;1.70;;;;;;;24.73;96.70;98774.78;6259352;28;20185;-72
2023/07/26 11:46:46;;;;;;;1.70;1.52;;;;;;;24.60;94.60;98767.66;6262762;28;20052;-71
2023/07/26 11:49:46;;;;;;;2.13;1.63;;;;;;;24.55;96.07;98748.84;6294965;28;20048;-73
2023/07/26 11:53:03;;;;;;;4.95;1.70;;;;;;;24.74;93.25;98737.19;6278213;28;20045;-72
2023/07/26 11:56:04;;;;;;;4.28;1.90;;;;;;;24.91;91.85;98737.50;6293784;28;20051;-71
2023/07/26 11:59:05;;;;;;;2.42;1.52;;;;;;;24.73;89.42;98745.44;6265718;28;20131;-70
2023/07/26 12:02:06;;;;;;;1.90;1.60;;;;;;;24.50;87.70;98761.97;6272962;28;20049;-71
2023/07/26 12:05:26;;;;;;;3.77;1.57;;;;;;;24.16;90.59;98784.53;6273271;28;20384;-71
2023/07/26 12:08:28;;;;;;;4.88;1.90;;;;;;;22.73;96.40;98780.63;6288170;28;20076;-70
2023/07/26 12:11:30;;;;;;;2.90;1.80;;;;;;;21.89;100.00;98779.97;6272875;28;20552;-71
2023/07/26 12:14:33;;;;;;;5.82;2.10;;;;;;;21.73;100.00;98780.31;6272583;28;20052;-71
2023/07/26 12:17:36;;;;;;;2.38;1.88;;;;;;;21.92;100.00;98782.22;6272620;28;20071;-73
2023/07/26 12:20:58;;;;;;;2.97;2.13;;;;;;;22.91;100.00;98780.84;6286272;28;20048;-73
2023/07/26 12:24:03;;;;;;;4.00;2.05;;;;;;;24.11;99.68;98782.47;6279655;28;20049;-70
2023/07/26 12:27:05;;;;;;;2.92;1.65;;;;;;;23.74;93.08;98784.84;6297349;28;20084;-71
2023/07/26 12:30:12;;;;;;;2.10;1.80;;;;;;;24.70;92.12;98785.84;6297295;28;20059;-71
2023/07/26 12:33:14;;;;;;;2.28;1.80;;;;;;;24.37;86.52;98778.03;6297015;28;20072;-70
2023/07/26 12:36:15;;;;;;;5.40;1.50;;;;;;;23.55;90.58;98781.19;6278751;28;20056;-70
2023/07/26 12:39:21;;;;;;;2.30;1.47;;;;;;;23.89;91.38;98776.63;6283016;28;20049;-71
2023/07/26 12:42:21;;;;;;;2.40;1.95;;;;;;;24.20;89.08;98778.53;6263136;28;20040;-70
2023/07/26 12:45:22;;;;;;;2.53;1.73;;;;;;;23.38;89.95;98778.19;6264676;28;20144;-70
2023/07/26 12:48:24;;;;;;;3.27;1.93;;;;;;;24.12;89.42;98776.13;6278293;28;20135;-70
2023/07/26 12:51:26;;;;;;;2.28;1.58;;;;;;;24.61;84.26;98784.50;6278290;28;20498;-71
2023/07/26 12:54:27;;;;;;;;;;;;;;;24.69;78.08;98776.22;6296930;28;20455;-71
2023/07/26 12:57:27;;;;;;;5.78;1.42;;;;;;;23.85;86.09;98781.56;6292147;28;19927;-70
2023/07/26 13:00:29;;;;;;;2.70;1.40;;;;;;;22.67;87.84;98770.78;6296823;28;20060;-70
2023/07/26 13:03:30;;;;;;;3.38;1.50;;;;;;;22.49;88.53;98790.00;6296851;28;20552;-71
2023/07/26 13:06:30;;;;;;;1.97;1.23;;;;;;;22.29;86.30;98784.63;6296720;28;20056;-71
2023/07/26 13:09:31;;;;;;;2.10;1.40;;;;;;;22.09;87.64;98784.53;6289887;28;20131;-71
2023/07/26 13:12:32;;;;;;;1.57;1.33;;;;;;;22.51;89.16;98795.94;6278909;28;20044;-71
2023/07/26 13:15:35;;;;;;;2.33;1.20;;;;;;;22.38;89.20;98796.69;6290852;28;20056;-70
2023/07/26 13:18:36;;;;;;;1.77;1.20;;;;;;;23.79;84.54;98808.22;6296738;28;20170;-71
2023/07/26 13:21:39;;;;;;;1.10;1.00;;;;;;;24.02;78.96;98802.41;6278715;28;20044;-71
2023/07/26 13:24:39;;;;;;;1.17;1.00;;;;;;;23.26;80.89;98798.47;6278597;28;20491;-71
2023/07/26 13:27:42;;;;;;;2.87;1.40;;;;;;;22.93;82.06;98796.59;6278869;28;20049;-71
2023/07/26 13:30:42;;;;;;;1.25;1.10;;;;;;;23.03;83.34;98817.50;6297043;28;20048;-71
2023/07/26 13:33:43;;;;;;;1.60;1.00;;;;;;;23.03;85.54;98810.34;6278783;28;20105;-71
2023/07/26 13:36:44;;;;;;;2.20;1.20;;;;;;;22.87;82.46;98810.69;6278993;28;20289;-71
2023/07/26 13:39:47;;;;;;;2.13;1.00;;;;;;;23.30;81.07;98813.00;6278810;28;20056;-71
2023/07/26 13:42:49;;;;;;;2.45;0.90;;;;;;;23.30;79.77;98813.00;6296671;28;20098;-71
2023/07/26 13:45:50;;;;;;;2.10;0.85;;;;;;;24.04;80.02;98817.13;6255130;28;20515;-69
2023/07/26 13:48:51;;;;;;;2.20;1.30;;;;;;;23.99;77.94;98811.63;6271242;28;20049;-69
2023/07/26 13:51:51;;;;;;;1.83;1.23;;;;;;;23.92;76.51;98816.16;6295458;28;20052;-69
2023/07/26 13:54:53;;;;;;;2.33;1.47;;;;;;;23.85;77.67;98818.03;6271264;28;20053;-69
2023/07/26 13:57:55;;;;;;;1.73;1.20;;;;;;;24.02;76.94;98819.19;6303121;28;20289;-70
2023/07/26 14:00:56;;;;;;;1.73;1.27;;;;;;;24.31;77.38;98820.50;6287577;28;20048;-69
2023/07/26 14:03:58;;;;;;;1.33;1.03;;;;;;;23.91;76.75;98830.53;6268706;28;20049;-69
2023/07/26 14:07:01;;;;;;;1.58;1.20;;;;;;;23.83;76.99;98831.56;6284460;28;20098;-69
2023/07/26 14:10:01;;;;;;;1.73;1.30;;;;;;;23.74;75.63;98836.28;6275590;28;20045;-69
2023/07/26 14:13:02;;;;;;;3.03;1.30;;;;;;;23.67;75.13;98840.78;6271338;28;20515;-70
2023/07/26 14:16:03;;;;;;;1.77;1.00;;;;;;;23.62;74.55;98837.94;6284179;28;20492;-71
2023/07/26 14:19:04;;;;;;;1.27;0.90;;;;;;;23.21;72.88;98841.66;6299207;28;20058;-72
2023/07/26 14:22:05;;;;;;;1.20;1.07;;;;;;;23.21;73.43;98839.00;6299686;28;20131;-71
2023/07/26 14:25:07;;;;;;;1.10;1.00;;;;;;;23.00;73.65;98847.97;6299275;28;20503;-74
2023/07/26 14:28:08;;;;;;;1.48;1.20;;;;;;;23.06;76.54;98849.00;6300637;28;20048;-74
2023/07/26 14:31:09;;;;;;;1.43;1.00;;;;;;;23.16;75.79;98845.94;6298893;28;20466;-74
2023/07/26 14:34:10;;;;;;;1.60;1.02;;;;;;;22.82;74.32;98845.88;6299916;28;20083;-71
2023/07/26 14:37:10;;;;;;;1.10;0.90;;;;;;;23.32;75.61;98845.53;6298820;28;20048;-72